createdAt,value
2018-03-14T00:00:16.713Z,21.70
2018-03-14T00:02:45.080Z,22.70
2018-03-14T00:05:12.650Z,22.20
2018-03-14T00:07:40.293Z,21.83
2018-03-14T00:10:07.866Z,22.77
2018-03-14T00:12:35.444Z,22.70
2018-03-14T00:15:03.093Z,23.57
2018-03-14T00:17:30.685Z,22.83
2018-03-14T00:19:59.022Z,22.00
2018-03-14T00:22:33.332Z,23.37
2018-03-14T00:25:00.915Z,23.60
2018-03-14T00:27:28.491Z,24.83
2018-03-14T00:29:56.860Z,24.73
2018-03-14T00:32:24.528Z,25.20
2018-03-14T00:34:52.178Z,23.77
2018-03-14T00:37:19.855Z,23.37
2018-03-14T00:39:47.508Z,25.57
2018-03-14T00:42:15.893Z,23.77
2018-03-14T00:44:43.564Z,24.60
2018-03-14T00:47:11.219Z,23.87
2018-03-14T00:49:38.814Z,23.13
2018-03-14T00:52:06.424Z,24.33
2018-03-14T00:54:33.987Z,24.77
2018-03-14T00:57:01.564Z,23.43
2018-03-14T00:59:29.156Z,23.57
2018-03-14T01:01:57.601Z,24.60
2018-03-14T01:04:25.169Z,24.90
2018-03-14T01:06:52.758Z,24.77
2018-03-14T01:09:21.202Z,24.93
2018-03-14T01:11:48.874Z,24.80
2018-03-14T01:14:16.448Z,25.93
2018-03-14T01:16:44.096Z,26.13
2018-03-14T01:19:11.667Z,25.53
2018-03-14T01:21:39.251Z,24.33
2018-03-14T01:24:07.577Z,25.63
2018-03-14T01:26:35.155Z,26.27
2018-03-14T01:29:02.819Z,25.60
2018-03-14T01:31:30.480Z,25.37
2018-03-14T01:33:58.051Z,25.13
2018-03-14T01:36:25.713Z,26.33
2018-03-14T01:38:53.287Z,24.67
2018-03-14T01:41:21.625Z,25.60
2018-03-14T01:43:49.323Z,23.57
2018-03-14T01:46:16.919Z,21.80
2018-03-14T01:48:44.487Z,22.97
2018-03-14T01:51:12.073Z,24.17
2018-03-14T01:53:39.641Z,22.67
2018-03-14T01:56:07.387Z,23.17
2018-03-14T01:58:36.519Z,23.43
2018-03-14T02:01:04.096Z,22.70
2018-03-14T02:03:31.752Z,24.60
2018-03-14T02:05:59.340Z,24.00
2018-03-14T02:08:27.770Z,23.93
2018-03-14T02:10:55.350Z,24.43
2018-03-14T02:13:22.941Z,23.97
2018-03-14T02:15:51.292Z,25.00
2018-03-14T02:18:18.858Z,24.23
2018-03-14T02:20:47.223Z,25.27
2018-03-14T02:23:14.898Z,25.20
2018-03-14T02:25:42.470Z,26.33
2018-03-14T02:28:10.830Z,23.87
2018-03-14T02:30:38.503Z,24.40
2018-03-14T02:33:06.065Z,25.30
2018-03-14T02:35:33.730Z,28.60
2018-03-14T02:38:01.311Z,28.17
2018-03-14T02:40:29.642Z,27.77
2018-03-14T02:42:57.228Z,28.13
2018-03-14T02:45:24.802Z,26.90
2018-03-14T02:47:52.446Z,24.77
2018-03-14T02:50:20.012Z,27.03
2018-03-14T02:52:47.579Z,26.70
2018-03-14T02:55:15.236Z,25.70
2018-03-14T02:57:42.805Z,25.57
2018-03-14T03:00:10.353Z,24.67
2018-03-14T03:02:37.917Z,25.00
2018-03-14T03:05:05.486Z,25.93
2018-03-14T03:07:33.046Z,24.43
2018-03-14T03:10:00.713Z,24.93
2018-03-14T03:12:28.370Z,26.50
2018-03-14T03:14:55.926Z,27.13
2018-03-14T03:17:23.492Z,24.70
2018-03-14T03:19:51.053Z,25.57
2018-03-14T03:22:18.712Z,26.37
2018-03-14T03:24:46.265Z,28.03
2018-03-14T03:27:13.828Z,27.67
2018-03-14T03:29:41.375Z,28.97
2018-03-14T03:32:08.919Z,28.63
2018-03-14T03:34:36.510Z,29.53
2018-03-14T03:37:04.070Z,27.57
2018-03-14T03:39:31.643Z,27.10
2018-03-14T03:41:59.318Z,28.63
2018-03-14T03:44:27.664Z,28.60
2018-03-14T03:46:55.193Z,30.13
2018-03-14T03:49:23.616Z,29.50
2018-03-14T03:51:51.167Z,27.87
2018-03-14T03:54:18.710Z,28.50
2018-03-14T03:56:46.309Z,28.57
2018-03-14T03:59:13.859Z,28.07
2018-03-14T04:01:41.419Z,28.93
2018-03-14T04:04:08.977Z,29.00
2018-03-14T04:06:36.526Z,29.53
2018-03-14T04:09:04.102Z,27.23
2018-03-14T04:11:31.686Z,27.73
2018-03-14T04:13:59.328Z,27.37
2018-03-14T04:16:26.889Z,29.53
2018-03-14T04:18:54.474Z,28.23
2018-03-14T04:21:22.021Z,29.13
2018-03-14T04:23:49.567Z,28.33
2018-03-14T04:26:17.147Z,28.37
2018-03-14T04:28:44.805Z,27.50
2018-03-14T04:31:12.368Z,27.67
2018-03-14T04:33:40.004Z,28.27
2018-03-14T04:36:07.554Z,27.67
2018-03-14T04:38:35.107Z,28.20
2018-03-14T04:41:02.704Z,29.40
2018-03-14T04:43:30.253Z,27.90
2018-03-14T04:45:57.798Z,29.23
2018-03-14T04:48:25.353Z,28.70
2018-03-14T04:50:52.916Z,29.30
2018-03-14T04:53:20.473Z,29.27
2018-03-14T04:55:48.047Z,30.60
2018-03-14T04:58:15.592Z,28.03
2018-03-14T05:00:43.133Z,29.77
2018-03-14T05:03:11.461Z,27.00
2018-03-14T05:05:39.025Z,28.40
2018-03-14T05:08:06.585Z,28.70
2018-03-14T05:10:34.159Z,29.03
2018-03-14T05:13:01.721Z,29.47
2018-03-14T05:15:29.372Z,29.27
2018-03-14T05:17:56.936Z,28.43
2018-03-14T05:20:24.495Z,29.17
2018-03-14T05:22:52.058Z,28.10
2018-03-14T05:25:19.717Z,28.60
2018-03-14T05:27:47.263Z,27.50
2018-03-14T05:30:14.856Z,27.93
2018-03-14T05:32:42.506Z,27.30
2018-03-14T05:35:10.056Z,27.63
2018-03-14T05:37:37.606Z,27.23
2018-03-14T05:40:05.193Z,27.83
2018-03-14T05:42:32.739Z,28.27
2018-03-14T05:45:00.296Z,27.63
2018-03-14T05:47:27.983Z,29.60
2018-03-14T05:49:55.616Z,28.43
2018-03-14T05:52:23.192Z,29.57
2018-03-14T05:54:50.767Z,28.80
2018-03-14T05:57:18.327Z,27.83
2018-03-14T05:59:45.893Z,29.40
2018-03-14T06:02:13.543Z,28.40
2018-03-14T06:04:41.083Z,28.73
2018-03-14T06:07:08.627Z,29.47
2018-03-14T06:09:36.217Z,29.73
2018-03-14T06:12:05.218Z,30.03
2018-03-14T06:14:32.784Z,29.87
2018-03-14T06:17:00.555Z,29.13
2018-03-14T06:19:28.236Z,31.27
2018-03-14T06:21:55.871Z,30.43
2018-03-14T06:24:23.465Z,31.67
2018-03-14T06:26:51.104Z,30.13
2018-03-14T06:29:18.668Z,30.33
2018-03-14T06:31:46.367Z,31.47
2018-03-14T06:34:14.678Z,29.77
2018-03-14T06:36:42.245Z,29.97
2018-03-14T06:39:09.836Z,29.50
2018-03-14T06:41:37.380Z,29.57
2018-03-14T06:44:04.944Z,30.00
2018-03-14T06:46:32.520Z,30.63
2018-03-14T06:49:00.078Z,30.57
2018-03-14T06:51:27.735Z,30.90
2018-03-14T06:53:55.472Z,30.30
2018-03-14T06:56:23.498Z,30.33
2018-03-14T06:59:03.088Z,29.47
2018-03-14T07:01:42.533Z,28.63
2018-03-14T07:04:22.191Z,28.97
2018-03-14T07:06:49.743Z,28.10
2018-03-14T07:09:17.301Z,30.97
2018-03-14T07:11:44.890Z,29.30
2018-03-14T07:14:12.458Z,29.87
2018-03-14T07:16:40.013Z,27.93
2018-03-14T07:19:07.591Z,28.13
2018-03-14T07:21:35.170Z,27.53
2018-03-14T07:24:03.487Z,28.83
2018-03-14T07:26:31.183Z,27.93
2018-03-14T07:28:58.747Z,28.43
2018-03-14T07:31:26.469Z,27.27
2018-03-14T07:33:54.044Z,27.70
2018-03-14T07:36:21.633Z,29.10
2018-03-14T07:38:49.178Z,26.83
2018-03-14T07:41:16.845Z,28.03
2018-03-14T07:43:44.506Z,27.03
2018-03-14T07:46:12.169Z,26.67
2018-03-14T07:48:39.739Z,26.87
2018-03-14T07:51:07.294Z,26.83
2018-03-14T07:53:34.944Z,28.17
2018-03-14T07:56:02.513Z,26.67
2018-03-14T07:58:30.173Z,27.10
2018-03-14T08:00:57.815Z,26.57
2018-03-14T08:03:25.501Z,26.87
2018-03-14T08:05:53.050Z,25.30
2018-03-14T08:08:20.619Z,27.47
2018-03-14T08:10:48.285Z,25.20
2018-03-14T08:13:15.955Z,25.47
2018-03-14T08:15:43.508Z,23.97
2018-03-14T08:18:11.071Z,24.50
2018-03-14T08:20:38.611Z,23.63
2018-03-14T08:23:06.170Z,24.13
2018-03-14T08:25:33.748Z,21.37
2018-03-14T08:28:01.295Z,22.40
2018-03-14T08:30:28.842Z,23.00
2018-03-14T08:32:56.435Z,22.77
2018-03-14T08:35:23.983Z,21.83
2018-03-14T08:37:51.579Z,21.70
2018-03-14T08:40:19.934Z,22.03
2018-03-14T08:42:47.612Z,21.50
2018-03-14T08:45:15.165Z,21.70
2018-03-14T08:47:42.815Z,22.27
2018-03-14T08:50:10.383Z,20.67
2018-03-14T08:52:37.927Z,19.50
2018-03-14T08:55:05.494Z,20.90
2018-03-14T08:57:33.067Z,19.93
2018-03-14T09:00:00.625Z,19.73
2018-03-14T09:02:28.180Z,20.57
2018-03-14T09:04:55.713Z,19.47
2018-03-14T09:07:23.316Z,20.40
2018-03-14T09:09:50.968Z,19.30
2018-03-14T09:12:18.543Z,19.10
2018-03-14T09:14:46.207Z,19.30
2018-03-14T09:17:20.609Z,18.60
2018-03-14T09:19:48.160Z,18.10
2018-03-14T09:22:15.738Z,18.20
2018-03-14T09:24:43.328Z,17.77
2018-03-14T09:27:10.961Z,17.00
2018-03-14T09:29:38.635Z,16.07
2018-03-14T09:32:06.197Z,15.63
2018-03-14T09:34:33.845Z,15.40
2018-03-14T09:37:01.453Z,16.17
2018-03-14T09:39:29.894Z,16.03
2018-03-14T09:41:57.569Z,16.50
2018-03-14T09:44:25.116Z,15.77
2018-03-14T09:46:52.767Z,15.80
2018-03-14T09:49:20.345Z,16.60
2018-03-14T09:51:47.999Z,15.93
2018-03-14T09:54:15.582Z,16.10
2018-03-14T09:56:43.126Z,15.93
2018-03-14T09:59:10.669Z,15.83
2018-03-14T10:01:38.246Z,15.27
2018-03-14T10:04:05.800Z,15.50
2018-03-14T10:06:33.352Z,14.30
2018-03-14T10:09:00.928Z,14.17
2018-03-14T10:11:28.512Z,13.67
2018-03-14T10:13:56.147Z,13.80
2018-03-14T10:16:23.718Z,13.80
2018-03-14T10:18:51.276Z,12.90
2018-03-14T10:21:18.827Z,13.47
2018-03-14T10:23:46.404Z,13.40
2018-03-14T10:26:13.958Z,12.77
2018-03-14T10:28:41.518Z,13.13
2018-03-14T10:31:09.193Z,13.17
2018-03-14T10:33:36.860Z,13.03
2018-03-14T10:36:04.416Z,12.53
2018-03-14T10:38:32.067Z,13.10
2018-03-14T10:40:59.635Z,13.20
2018-03-14T10:43:27.193Z,12.40
2018-03-14T10:45:54.842Z,11.63
2018-03-14T10:48:22.401Z,11.90
2018-03-14T10:50:49.959Z,10.77
2018-03-14T10:53:17.540Z,11.23
2018-03-14T10:55:45.097Z,11.00
2018-03-14T10:58:12.693Z,11.30
2018-03-14T11:00:46.782Z,12.20
2018-03-14T11:03:18.062Z,13.60
2018-03-14T11:05:45.622Z,11.30
2018-03-14T11:08:13.963Z,12.27
2018-03-14T11:10:41.528Z,11.97
2018-03-14T11:13:09.083Z,9.47
2018-03-14T11:15:36.755Z,7.40
2018-03-14T11:18:05.091Z,9.90
2018-03-14T11:20:32.665Z,9.70
2018-03-14T11:23:00.218Z,9.20
2018-03-14T11:25:27.770Z,10.67
2018-03-14T11:27:55.355Z,10.17
2018-03-14T11:30:22.931Z,10.67
2018-03-14T11:32:50.499Z,10.60
2018-03-14T11:35:18.062Z,10.77
2018-03-14T11:37:45.634Z,10.20
2018-03-14T11:40:13.943Z,9.17
2018-03-14T11:42:41.608Z,9.07
2018-03-14T11:45:09.175Z,9.70
2018-03-14T11:47:36.739Z,10.63
2018-03-14T11:50:04.296Z,9.80
2018-03-14T11:52:31.977Z,11.50
2018-03-14T11:54:59.530Z,11.03
2018-03-14T11:57:27.115Z,9.23
2018-03-14T11:59:54.720Z,9.63
2018-03-14T12:02:22.275Z,9.03
2018-03-14T12:04:50.603Z,8.70
2018-03-14T12:07:18.193Z,8.97
2018-03-14T12:09:46.530Z,8.63
2018-03-14T12:12:14.087Z,8.33
2018-03-14T12:14:41.744Z,8.90
2018-03-14T12:17:09.298Z,8.17
2018-03-14T12:19:36.880Z,8.27
2018-03-14T12:22:04.440Z,8.40
2018-03-14T12:24:32.014Z,7.67
2018-03-14T12:26:59.581Z,8.30
2018-03-14T12:29:28.851Z,8.47
2018-03-14T12:31:56.409Z,7.37
2018-03-14T12:34:23.994Z,6.97
2018-03-14T12:36:51.623Z,7.63
2018-03-14T12:39:19.181Z,7.07
2018-03-14T12:41:46.737Z,7.43
2018-03-14T12:44:14.335Z,7.23
2018-03-14T12:46:41.891Z,7.07
2018-03-14T12:49:09.448Z,6.83
2018-03-14T12:51:37.023Z,6.90
2018-03-14T12:54:04.621Z,6.87
2018-03-14T12:56:32.605Z,6.50
2018-03-14T12:59:00.198Z,6.97
2018-03-14T13:01:27.762Z,6.23
2018-03-14T13:03:55.307Z,6.73
2018-03-14T13:06:22.887Z,6.90
2018-03-14T13:08:50.422Z,6.90
2018-03-14T13:11:17.997Z,6.57
2018-03-14T13:13:45.561Z,6.53
2018-03-14T13:16:13.105Z,5.93
2018-03-14T13:18:40.689Z,5.63
2018-03-14T13:21:08.343Z,5.47
2018-03-14T13:23:35.879Z,6.53
2018-03-14T13:26:03.421Z,5.70
2018-03-14T13:28:32.029Z,6.00
2018-03-14T13:30:59.575Z,5.37
2018-03-14T13:33:27.126Z,6.50
2018-03-14T13:35:54.701Z,5.90
2018-03-14T13:38:22.273Z,6.23
2018-03-14T13:40:49.849Z,5.80
2018-03-14T13:43:17.480Z,6.03
2018-03-14T13:45:45.047Z,5.67
2018-03-14T13:48:12.614Z,5.07
2018-03-14T13:50:40.174Z,5.30
2018-03-14T13:53:07.768Z,5.50
2018-03-14T13:55:35.323Z,5.63
2018-03-14T13:58:02.980Z,5.70
2018-03-14T14:00:30.536Z,5.97
2018-03-14T14:02:58.094Z,5.10
2018-03-14T14:05:25.654Z,5.27
2018-03-14T14:07:53.210Z,5.40
2018-03-14T14:10:20.861Z,5.30
2018-03-14T14:12:48.410Z,5.30
2018-03-14T14:15:15.988Z,4.73
2018-03-14T14:17:43.530Z,5.17
2018-03-14T14:20:11.093Z,4.40
2018-03-14T14:22:38.654Z,5.47
2018-03-14T14:25:06.230Z,4.67
2018-03-14T14:27:33.803Z,4.27
2018-03-14T14:30:01.344Z,5.00
2018-03-14T14:32:28.882Z,4.67
2018-03-14T14:34:56.448Z,4.27
2018-03-14T14:37:24.001Z,4.57
2018-03-14T14:39:51.562Z,4.20
2018-03-14T14:42:19.199Z,4.07
2018-03-14T14:44:47.552Z,4.43
2018-03-14T14:47:15.207Z,3.70
2018-03-14T14:49:42.883Z,3.97
2018-03-14T14:52:10.526Z,3.80
2018-03-14T14:54:38.073Z,4.03
2018-03-14T14:57:05.773Z,4.30
2018-03-14T14:59:33.333Z,4.30
2018-03-14T15:02:00.876Z,4.30
2018-03-14T15:04:28.444Z,4.10
2018-03-14T15:06:55.995Z,3.80
2018-03-14T15:09:23.539Z,3.80
2018-03-14T15:11:51.218Z,4.57
2018-03-14T15:14:18.763Z,4.30
2018-03-14T15:16:46.336Z,3.80
2018-03-14T15:19:13.914Z,3.60
2018-03-14T15:21:41.467Z,3.83
2018-03-14T15:24:09.022Z,3.60
2018-03-14T15:26:36.731Z,3.80
2018-03-14T15:29:05.082Z,4.20
2018-03-14T15:31:36.081Z,3.70
2018-03-14T15:34:03.660Z,3.63
2018-03-14T15:36:31.253Z,3.73
2018-03-14T15:38:58.814Z,3.50
2018-03-14T15:41:27.183Z,4.40
2018-03-14T15:43:54.735Z,3.80
2018-03-14T15:46:22.406Z,3.60
2018-03-14T15:48:49.971Z,3.70
2018-03-14T15:51:17.612Z,3.93
2018-03-14T15:53:45.172Z,3.87
2018-03-14T15:56:12.736Z,4.03
2018-03-14T15:58:40.286Z,3.37
2018-03-14T16:01:07.848Z,3.70
2018-03-14T16:03:35.409Z,4.17
2018-03-14T16:06:02.960Z,4.27
2018-03-14T16:08:30.533Z,3.77
2018-03-14T16:10:58.196Z,3.73
2018-03-14T16:13:25.746Z,3.70
2018-03-14T16:15:53.314Z,3.70
2018-03-14T16:18:20.866Z,3.70
2018-03-14T16:20:48.434Z,3.90
2018-03-14T16:23:16.005Z,4.07
2018-03-14T16:25:43.662Z,3.93
2018-03-14T16:28:11.246Z,3.53
2018-03-14T16:30:38.801Z,3.80
2018-03-14T16:33:06.362Z,4.00
2018-03-14T16:35:34.019Z,4.00
2018-03-14T16:38:02.436Z,3.73
2018-03-14T16:40:30.946Z,3.80
2018-03-14T16:42:58.917Z,4.37
2018-03-14T16:45:26.537Z,3.63
2018-03-14T16:47:54.959Z,3.80
2018-03-14T16:50:23.431Z,4.30
2018-03-14T16:52:51.000Z,4.33
2018-03-14T16:55:18.558Z,4.30
2018-03-14T16:57:46.251Z,4.37
2018-03-14T17:00:14.168Z,4.33
2018-03-14T17:02:41.722Z,4.37
2018-03-14T17:05:10.081Z,4.60
2018-03-14T17:07:37.656Z,4.20
2018-03-14T17:10:05.970Z,4.50
2018-03-14T17:12:33.521Z,4.90
2018-03-14T17:15:01.118Z,4.90
2018-03-14T17:17:28.770Z,4.80
2018-03-14T17:19:56.340Z,4.60
2018-03-14T17:22:23.983Z,5.10
2018-03-14T17:24:51.528Z,5.33
2018-03-14T17:27:19.108Z,5.00
2018-03-14T17:29:46.798Z,5.10
2018-03-14T17:32:14.826Z,5.00
2018-03-14T17:34:42.485Z,4.80
2018-03-14T17:37:10.111Z,4.57
2018-03-14T17:39:38.433Z,5.03
2018-03-14T17:42:06.003Z,5.30
2018-03-14T17:44:33.578Z,5.90
2018-03-14T17:47:01.119Z,5.43
2018-03-14T17:49:28.674Z,5.43
2018-03-14T17:51:56.267Z,5.43
2018-03-14T17:54:23.891Z,5.40
2018-03-14T17:56:51.465Z,5.00
2018-03-14T17:59:19.037Z,5.63
2018-03-14T18:01:46.588Z,6.17
2018-03-14T18:04:14.147Z,6.10
2018-03-14T18:06:41.831Z,6.03
2018-03-14T18:09:09.561Z,6.37
2018-03-14T18:11:37.334Z,6.37
2018-03-14T18:14:05.029Z,6.40
2018-03-14T18:16:32.615Z,6.10
2018-03-14T18:19:01.032Z,5.80
2018-03-14T18:21:28.621Z,5.47
2018-03-14T18:23:56.201Z,6.07
2018-03-14T18:26:23.848Z,6.70
2018-03-14T18:28:51.418Z,6.23
2018-03-14T18:31:18.994Z,6.00
2018-03-14T18:33:47.330Z,5.70
2018-03-14T18:36:14.909Z,6.80
2018-03-14T18:38:42.467Z,6.83
2018-03-14T18:41:10.018Z,6.40
2018-03-14T18:43:37.607Z,6.73
2018-03-14T18:46:05.252Z,6.67
2018-03-14T18:48:32.806Z,6.90
2018-03-14T18:51:00.372Z,6.73
2018-03-14T18:53:27.926Z,7.00
2018-03-14T18:55:55.607Z,7.00
2018-03-14T18:58:23.174Z,6.73
2018-03-14T19:00:50.734Z,6.67
2018-03-14T19:03:19.084Z,6.70
2018-03-14T19:05:46.632Z,6.87
2018-03-14T19:08:14.299Z,6.70
2018-03-14T19:10:41.851Z,6.70
2018-03-14T19:13:09.408Z,6.53
2018-03-14T19:15:36.959Z,6.60
2018-03-14T19:18:04.550Z,6.60
2018-03-14T19:20:32.211Z,6.40
2018-03-14T19:22:59.751Z,6.37
2018-03-14T19:25:27.289Z,6.97
2018-03-14T19:27:54.850Z,6.30
2018-03-14T19:30:22.441Z,6.20
2018-03-14T19:32:49.999Z,6.97
2018-03-14T19:35:17.550Z,6.77
2018-03-14T19:37:45.138Z,7.10
2018-03-14T19:40:12.687Z,6.77
2018-03-14T19:42:40.239Z,7.27
2018-03-14T19:45:07.771Z,7.40
2018-03-14T19:47:35.335Z,7.30
2018-03-14T19:50:02.908Z,7.30
2018-03-14T19:52:30.449Z,7.47
2018-03-14T19:54:57.990Z,7.30
2018-03-14T19:57:26.317Z,7.50
2018-03-14T19:59:53.868Z,7.83
2018-03-14T20:02:21.420Z,8.23
2018-03-14T20:04:48.991Z,7.90
2018-03-14T20:07:16.542Z,8.20
2018-03-14T20:09:44.134Z,8.23
2018-03-14T20:12:11.700Z,8.30
2018-03-14T20:14:39.259Z,8.97
2018-03-14T20:17:06.829Z,8.80
2018-03-14T20:19:34.455Z,9.20
2018-03-14T20:22:01.994Z,10.90
2018-03-14T20:24:29.553Z,11.33
2018-03-14T20:26:57.113Z,9.67
2018-03-14T20:29:24.659Z,8.80
2018-03-14T20:31:52.973Z,9.20
2018-03-14T20:34:20.539Z,8.23
2018-03-14T20:36:48.095Z,8.90
2018-03-14T20:39:15.633Z,8.80
2018-03-14T20:41:43.243Z,8.77
2018-03-14T20:44:10.889Z,9.00
2018-03-14T20:46:38.436Z,8.63
2018-03-14T20:49:06.007Z,8.13
2018-03-14T20:51:33.560Z,8.77
2018-03-14T20:54:01.131Z,8.73
2018-03-14T20:56:28.698Z,8.63
2018-03-14T20:58:56.262Z,8.50
2018-03-14T21:01:23.816Z,7.80
2018-03-14T21:03:51.378Z,8.37
2018-03-14T21:06:18.955Z,8.37
2018-03-14T21:08:46.513Z,8.33
2018-03-14T21:11:14.093Z,8.40
2018-03-14T21:13:42.398Z,8.73
2018-03-14T21:16:09.941Z,8.90
2018-03-14T21:18:38.372Z,8.27
2018-03-14T21:21:05.934Z,8.93
2018-03-14T21:23:35.176Z,8.97
2018-03-14T21:26:03.710Z,8.53
2018-03-14T21:28:31.244Z,8.80
2018-03-14T21:30:58.832Z,8.87
2018-03-14T21:33:26.494Z,8.90
2018-03-14T21:35:54.142Z,8.80
2018-03-14T21:38:21.719Z,8.73
2018-03-14T21:40:49.389Z,7.73
2018-03-14T21:43:16.947Z,8.30
2018-03-14T21:45:44.503Z,7.60
2018-03-14T21:48:12.056Z,7.97
2018-03-14T21:50:39.605Z,8.03
2018-03-14T21:53:07.228Z,7.97
2018-03-14T21:55:39.448Z,8.10
2018-03-14T21:58:06.996Z,7.60
2018-03-14T22:00:34.542Z,7.73
2018-03-14T22:03:02.126Z,7.87
2018-03-14T22:05:29.703Z,7.63
2018-03-14T22:07:57.255Z,7.80
2018-03-14T22:10:24.811Z,7.80
2018-03-14T22:12:52.350Z,7.13
2018-03-14T22:15:19.892Z,7.60
2018-03-14T22:17:47.513Z,6.90
2018-03-14T22:20:15.058Z,7.20
2018-03-14T22:22:42.632Z,7.00
2018-03-14T22:25:10.194Z,6.77
2018-03-14T22:27:37.748Z,6.80
2018-03-14T22:30:05.313Z,7.17
2018-03-14T22:32:32.860Z,7.00
2018-03-14T22:35:00.433Z,6.40
2018-03-14T22:37:28.105Z,7.23
2018-03-14T22:39:55.651Z,7.33
2018-03-14T22:42:23.204Z,6.57
2018-03-14T22:44:50.748Z,6.63
2018-03-14T22:47:18.310Z,6.30
2018-03-14T22:49:45.887Z,7.90
2018-03-14T22:52:13.441Z,7.27
2018-03-14T22:54:41.026Z,7.27
2018-03-14T22:57:08.564Z,6.90
2018-03-14T22:59:36.128Z,7.70
2018-03-14T23:02:03.699Z,7.33
2018-03-14T23:04:31.241Z,6.87
2018-03-14T23:06:58.783Z,7.73
2018-03-14T23:09:26.397Z,7.00
2018-03-14T23:11:53.945Z,7.23
2018-03-14T23:14:21.511Z,7.53
2018-03-14T23:16:49.189Z,7.60
2018-03-14T23:19:16.723Z,7.40
2018-03-14T23:21:44.291Z,8.13
2018-03-14T23:24:11.866Z,7.43
2018-03-14T23:26:39.461Z,8.17
2018-03-14T23:29:07.766Z,7.60
2018-03-14T23:31:35.330Z,8.33
2018-03-14T23:34:02.909Z,8.13
2018-03-14T23:36:30.451Z,8.77
2018-03-14T23:38:58.026Z,8.70
2018-03-14T23:41:25.602Z,7.90
2018-03-14T23:43:53.253Z,7.97
2018-03-14T23:46:20.933Z,8.83
2018-03-14T23:48:48.614Z,8.67
2018-03-14T23:51:16.245Z,8.87
2018-03-14T23:53:43.822Z,8.07
2018-03-14T23:56:12.144Z,8.87
2018-03-14T23:58:39.704Z,8.90
